createdAt,value
2018-05-14T00:02:19.085Z,84.17
2018-05-14T00:04:44.594Z,83.59
2018-05-14T00:07:10.257Z,83.49
2018-05-14T00:09:35.913Z,84.23
2018-05-14T00:12:01.471Z,84.12
2018-05-14T00:14:26.983Z,83.81
2018-05-14T00:16:52.744Z,83.44
2018-05-14T00:19:18.636Z,84.10
2018-05-14T00:21:44.151Z,83.17
2018-05-14T00:24:09.872Z,83.47
2018-05-14T00:26:35.381Z,83.87
2018-05-14T00:29:01.208Z,82.87
2018-05-14T00:31:26.805Z,83.96
2018-05-14T00:33:52.532Z,83.53
2018-05-14T00:36:18.261Z,83.30
2018-05-14T00:38:43.935Z,83.37
2018-05-14T00:41:09.460Z,83.32
2018-05-14T00:43:35.181Z,83.60
2018-05-14T00:46:00.956Z,83.81
2018-05-14T00:48:26.519Z,83.33
2018-05-14T00:50:52.117Z,83.53
2018-05-14T00:53:17.838Z,84.00
2018-05-14T00:55:43.345Z,83.84
2018-05-14T00:58:09.086Z,83.49
2018-05-14T01:00:34.632Z,83.22
2018-05-14T01:03:00.389Z,83.78
2018-05-14T01:05:25.956Z,83.43
2018-05-14T01:07:51.485Z,83.41
2018-05-14T01:10:17.213Z,83.44
2018-05-14T01:12:42.717Z,82.97
2018-05-14T01:17:40.039Z,82.39
2018-05-14T01:20:05.547Z,83.01
2018-05-14T01:22:31.353Z,82.97
2018-05-14T01:25:02.880Z,83.03
2018-05-14T01:27:28.468Z,82.82
2018-05-14T01:29:54.577Z,82.62
2018-05-14T01:32:20.114Z,82.27
2018-05-14T01:34:45.637Z,82.37
2018-05-14T01:37:11.457Z,82.46
2018-05-14T01:39:36.973Z,82.39
2018-05-14T01:42:02.754Z,82.20
2018-05-14T01:44:28.316Z,82.06
2018-05-14T01:46:53.822Z,82.13
2018-05-14T01:49:19.527Z,82.13
2018-05-14T01:51:45.040Z,82.47
2018-05-14T01:54:10.616Z,82.14
2018-05-14T01:56:36.328Z,82.90
2018-05-14T01:59:01.872Z,83.28
2018-05-14T02:01:27.622Z,82.17
2018-05-14T02:03:53.435Z,82.62
2018-05-14T02:06:18.954Z,82.48
2018-05-14T02:08:44.473Z,82.89
2018-05-14T02:11:10.213Z,82.79
2018-05-14T02:13:35.790Z,82.34
2018-05-14T02:16:01.316Z,82.60
2018-05-14T02:18:27.414Z,82.40
2018-05-14T02:20:52.917Z,82.60
2018-05-14T02:23:18.462Z,82.62
2018-05-14T02:25:44.229Z,82.87
2018-05-14T02:28:09.765Z,82.36
2018-05-14T02:30:35.279Z,82.92
2018-05-14T02:33:01.019Z,82.81
2018-05-14T02:35:26.546Z,82.31
2018-05-14T02:37:52.257Z,82.48
2018-05-14T02:40:17.803Z,82.47
2018-05-14T02:42:43.571Z,82.46
2018-05-14T02:45:09.088Z,82.38
2018-05-14T02:47:34.935Z,82.63
2018-05-14T02:50:00.713Z,82.32
2018-05-14T02:52:26.337Z,82.98
2018-05-14T02:54:51.853Z,82.60
2018-05-14T02:57:17.642Z,82.05
2018-05-14T02:59:43.450Z,81.90
2018-05-14T03:02:08.970Z,82.08
2018-05-14T03:04:34.638Z,82.04
2018-05-14T03:07:00.164Z,82.50
2018-05-14T03:09:25.741Z,82.31
2018-05-14T03:11:51.424Z,82.50
2018-05-14T03:14:16.988Z,82.92
2018-05-14T03:16:42.555Z,82.71
2018-05-14T03:19:08.317Z,82.84
2018-05-14T03:21:34.046Z,82.33
2018-05-14T03:23:59.620Z,82.83
2018-05-14T03:26:25.278Z,82.66
2018-05-14T03:28:50.851Z,81.97
2018-05-14T03:31:16.448Z,81.82
2018-05-14T03:33:42.171Z,81.88
2018-05-14T03:36:07.736Z,82.42
